West Akron, Ohio
Current Conditions -  °F | °C
As of 1:03 PM on Thursday 30 Oct 2014 (Local Time) from KAKR Reporting Station
Overcast Overcast  
Wind Chill: 47°   Ceiling: 3900
Heat Index: 49°   Visibility: 10mi
Dew Point: 38°   Wind: 6mph
Humidity: 66%   Direction: 320°NW
Pressure: 30.1"   Gusts: NA
Location:  41.0707°N, 81.5458°W
Report Text: KAKR 301703Z AUTO 32005KT 10SM FEW021 SCT028 OVC039 09/03 A3010 RMK AO2 T00940033
Loading
Personal Weather Stations






























Interactive Weather Map New forecast layout! Learn more

10-Day Weather Forecast

Advertisements
Track Severe Weather on mobile